sensor_id;sensor_type;location;lat;lon;timestamp;P1;durP1;ratioP1;P2;durP2;ratioP2
18647;SDS011;9453;50.294;18.644;2024-01-16T05:01:17;4.03;;;2.23;;
18647;SDS011;9453;50.294;18.644;2024-01-16T05:03:43;3.83;;;2.20;;
18647;SDS011;9453;50.294;18.644;2024-01-16T05:06:13;5.10;;;2.77;;
18647;SDS011;9453;50.294;18.644;2024-01-16T05:08:41;4.20;;;2.23;;
18647;SDS011;9453;50.294;18.644;2024-01-16T05:11:08;4.73;;;2.13;;
18647;SDS011;9453;50.294;18.644;2024-01-16T05:13:35;4.07;;;2.07;;
18647;SDS011;9453;50.294;18.644;2024-01-16T05:16:02;3.00;;;2.10;;
18647;SDS011;9453;50.294;18.644;2024-01-16T05:18:30;7.37;;;2.57;;
18647;SDS011;9453;50.294;18.644;2024-01-16T05:20:58;3.50;;;2.13;;
18647;SDS011;9453;50.294;18.644;2024-01-16T05:23:26;4.90;;;2.50;;
18647;SDS011;9453;50.294;18.644;2024-01-16T05:25:53;4.97;;;2.47;;
18647;SDS011;9453;50.294;18.644;2024-01-16T05:28:20;4.43;;;2.57;;
18647;SDS011;9453;50.294;18.644;2024-01-16T05:30:47;4.47;;;2.93;;
18647;SDS011;9453;50.294;18.644;2024-01-16T05:33:14;8.13;;;3.43;;
18647;SDS011;9453;50.294;18.644;2024-01-16T05:35:42;5.67;;;3.43;;
18647;SDS011;9453;50.294;18.644;2024-01-16T05:38:09;8.83;;;4.10;;
18647;SDS011;9453;50.294;18.644;2024-01-16T05:40:37;6.77;;;4.33;;
18647;SDS011;9453;50.294;18.644;2024-01-16T05:43:04;8.63;;;4.23;;
18647;SDS011;9453;50.294;18.644;2024-01-16T05:45:31;8.60;;;4.10;;
18647;SDS011;9453;50.294;18.644;2024-01-16T05:47:58;5.70;;;3.57;;
18647;SDS011;9453;50.294;18.644;2024-01-16T05:50:25;6.87;;;3.60;;
18647;SDS011;9453;50.294;18.644;2024-01-16T05:52:53;7.00;;;3.30;;
18647;SDS011;9453;50.294;18.644;2024-01-16T05:55:20;9.50;;;3.63;;
18647;SDS011;9453;50.294;18.644;2024-01-16T05:57:47;9.20;;;3.60;;
18647;SDS011;9453;50.294;18.644;2024-01-16T06:00:14;7.07;;;3.40;;
18647;SDS011;9453;50.294;18.644;2024-01-16T06:02:43;7.80;;;3.63;;
18647;SDS011;9453;50.294;18.644;2024-01-16T06:05:10;11.53;;;4.23;;
18647;SDS011;9453;50.294;18.644;2024-01-16T06:07:37;12.10;;;4.70;;
18647;SDS011;9453;50.294;18.644;2024-01-16T06:10:07;10.00;;;4.40;;
18647;SDS011;9453;50.294;18.644;2024-01-16T06:12:34;12.57;;;5.07;;
18647;SDS011;9453;50.294;18.644;2024-01-16T06:15:02;10.77;;;5.63;;
18647;SDS011;9453;50.294;18.644;2024-01-16T06:17:29;14.87;;;6.40;;
18647;SDS011;9453;50.294;18.644;2024-01-16T06:19:57;18.33;;;8.30;;
18647;SDS011;9453;50.294;18.644;2024-01-16T06:22:24;17.50;;;8.27;;
18647;SDS011;9453;50.294;18.644;2024-01-16T06:24:50;19.43;;;8.77;;
18647;SDS011;9453;50.294;18.644;2024-01-16T06:27:19;11.97;;;6.37;;
18647;SDS011;9453;50.294;18.644;2024-01-16T06:29:46;12.23;;;5.20;;
18647;SDS011;9453;50.294;18.644;2024-01-16T06:32:12;10.77;;;4.93;;
18647;SDS011;9453;50.294;18.644;2024-01-16T06:34:39;10.13;;;4.80;;
18647;SDS011;9453;50.294;18.644;2024-01-16T06:37:06;9.67;;;4.37;;
18647;SDS011;9453;50.294;18.644;2024-01-16T06:39:33;12.13;;;4.73;;
18647;SDS011;9453;50.294;18.644;2024-01-16T06:42:00;7.13;;;3.37;;
18647;SDS011;9453;50.294;18.644;2024-01-16T06:44:30;13.03;;;4.63;;
18647;SDS011;9453;50.294;18.644;2024-01-16T06:46:57;12.10;;;5.13;;
18647;SDS011;9453;50.294;18.644;2024-01-16T06:49:24;10.17;;;5.00;;
18647;SDS011;9453;50.294;18.644;2024-01-16T06:51:52;14.47;;;5.23;;
18647;SDS011;9453;50.294;18.644;2024-01-16T06:54:19;9.73;;;4.03;;
18647;SDS011;9453;50.294;18.644;2024-01-16T06:56:48;10.20;;;4.33;;
18647;SDS011;9453;50.294;18.644;2024-01-16T06:59:15;13.07;;;5.00;;
18647;SDS011;9453;50.294;18.644;2024-01-16T07:01:45;8.13;;;4.27;;
18647;SDS011;9453;50.294;18.644;2024-01-16T07:04:12;11.40;;;4.97;;
18647;SDS011;9453;50.294;18.644;2024-01-16T07:06:40;12.53;;;4.37;;
18647;SDS011;9453;50.294;18.644;2024-01-16T07:09:07;10.10;;;4.53;;
18647;SDS011;9453;50.294;18.644;2024-01-16T07:11:35;13.33;;;5.20;;
18647;SDS011;9453;50.294;18.644;2024-01-16T07:14:03;11.37;;;5.10;;
18647;SDS011;9453;50.294;18.644;2024-01-16T07:16:30;13.93;;;5.57;;
18647;SDS011;9453;50.294;18.644;2024-01-16T07:18:58;14.90;;;5.53;;
18647;SDS011;9453;50.294;18.644;2024-01-16T07:21:25;13.87;;;6.07;;
18647;SDS011;9453;50.294;18.644;2024-01-16T07:23:53;15.17;;;5.40;;
18647;SDS011;9453;50.294;18.644;2024-01-16T07:26:20;13.80;;;5.97;;
18647;SDS011;9453;50.294;18.644;2024-01-16T07:28:48;10.43;;;5.43;;
18647;SDS011;9453;50.294;18.644;2024-01-16T07:31:15;11.33;;;4.13;;
18647;SDS011;9453;50.294;18.644;2024-01-16T07:33:42;14.13;;;4.67;;
18647;SDS011;9453;50.294;18.644;2024-01-16T07:36:10;17.33;;;6.27;;
18647;SDS011;9453;50.294;18.644;2024-01-16T07:38:38;12.20;;;5.97;;
18647;SDS011;9453;50.294;18.644;2024-01-16T07:41:05;12.63;;;5.23;;
18647;SDS011;9453;50.294;18.644;2024-01-16T07:43:32;11.93;;;5.00;;
18647;SDS011;9453;50.294;18.644;2024-01-16T07:46:00;14.20;;;5.90;;
18647;SDS011;9453;50.294;18.644;2024-01-16T07:48:28;22.60;;;9.10;;
18647;SDS011;9453;50.294;18.644;2024-01-16T07:50:54;15.03;;;6.93;;
18647;SDS011;9453;50.294;18.644;2024-01-16T07:53:23;15.47;;;6.67;;
18647;SDS011;9453;50.294;18.644;2024-01-16T07:55:52;15.43;;;5.93;;
18647;SDS011;9453;50.294;18.644;2024-01-16T07:58:19;14.37;;;7.30;;
18647;SDS011;9453;50.294;18.644;2024-01-16T08:00:47;11.33;;;4.63;;
18647;SDS011;9453;50.294;18.644;2024-01-16T08:03:13;11.13;;;5.73;;
18647;SDS011;9453;50.294;18.644;2024-01-16T08:05:40;14.70;;;5.47;;
18647;SDS011;9453;50.294;18.644;2024-01-16T08:08:08;24.43;;;6.07;;
18647;SDS011;9453;50.294;18.644;2024-01-16T08:10:37;11.93;;;5.00;;
18647;SDS011;9453;50.294;18.644;2024-01-16T08:13:04;12.67;;;4.67;;
18647;SDS011;9453;50.294;18.644;2024-01-16T08:15:30;15.00;;;4.07;;
18647;SDS011;9453;50.294;18.644;2024-01-16T08:17:57;12.07;;;4.27;;
18647;SDS011;9453;50.294;18.644;2024-01-16T08:20:24;8.40;;;3.80;;
18647;SDS011;9453;50.294;18.644;2024-01-16T08:22:51;10.77;;;4.40;;
18647;SDS011;9453;50.294;18.644;2024-01-16T08:25:19;15.20;;;5.17;;
18647;SDS011;9453;50.294;18.644;2024-01-16T08:27:47;15.93;;;5.47;;
18647;SDS011;9453;50.294;18.644;2024-01-16T08:30:14;17.07;;;5.17;;
18647;SDS011;9453;50.294;18.644;2024-01-16T08:32:41;12.10;;;5.47;;
18647;SDS011;9453;50.294;18.644;2024-01-16T08:35:08;11.17;;;4.63;;
18647;SDS011;9453;50.294;18.644;2024-01-16T08:37:35;9.27;;;4.47;;
18647;SDS011;9453;50.294;18.644;2024-01-16T08:40:02;11.13;;;4.47;;
18647;SDS011;9453;50.294;18.644;2024-01-16T08:42:30;10.37;;;3.80;;
18647;SDS011;9453;50.294;18.644;2024-01-16T08:44:58;9.47;;;3.30;;
18647;SDS011;9453;50.294;18.644;2024-01-16T08:47:25;9.83;;;3.47;;
18647;SDS011;9453;50.294;18.644;2024-01-16T08:49:52;13.03;;;3.60;;
18647;SDS011;9453;50.294;18.644;2024-01-16T08:52:19;7.47;;;2.83;;
18647;SDS011;9453;50.294;18.644;2024-01-16T08:54:47;8.03;;;3.13;;
18647;SDS011;9453;50.294;18.644;2024-01-16T08:57:14;6.57;;;2.93;;
18647;SDS011;9453;50.294;18.644;2024-01-16T08:59:41;7.77;;;3.37;;
18647;SDS011;9453;50.294;18.644;2024-01-16T09:02:09;8.30;;;3.23;;
18647;SDS011;9453;50.294;18.644;2024-01-16T09:04:37;8.90;;;2.67;;
18647;SDS011;9453;50.294;18.644;2024-01-16T09:07:04;10.70;;;3.30;;
18647;SDS011;9453;50.294;18.644;2024-01-16T09:09:31;10.03;;;3.13;;
18647;SDS011;9453;50.294;18.644;2024-01-16T09:11:58;10.93;;;3.33;;
18647;SDS011;9453;50.294;18.644;2024-01-16T09:14:24;11.60;;;3.77;;
18647;SDS011;9453;50.294;18.644;2024-01-16T09:16:51;7.47;;;2.90;;
18647;SDS011;9453;50.294;18.644;2024-01-16T09:19:20;7.27;;;3.03;;
18647;SDS011;9453;50.294;18.644;2024-01-16T09:21:47;11.17;;;3.63;;
18647;SDS011;9453;50.294;18.644;2024-01-16T09:24:14;7.80;;;2.77;;
18647;SDS011;9453;50.294;18.644;2024-01-16T09:26:41;6.73;;;2.83;;
18647;SDS011;9453;50.294;18.644;2024-01-16T09:29:09;9.87;;;3.30;;
18647;SDS011;9453;50.294;18.644;2024-01-16T09:31:36;7.33;;;2.77;;
18647;SDS011;9453;50.294;18.644;2024-01-16T09:34:03;10.13;;;3.17;;
18647;SDS011;9453;50.294;18.644;2024-01-16T09:36:32;8.47;;;3.13;;
18647;SDS011;9453;50.294;18.644;2024-01-16T09:39:00;8.50;;;3.20;;
18647;SDS011;9453;50.294;18.644;2024-01-16T09:41:28;8.83;;;2.70;;
18647;SDS011;9453;50.294;18.644;2024-01-16T09:43:57;10.63;;;3.00;;
18647;SDS011;9453;50.294;18.644;2024-01-16T09:46:41;7.00;;;2.43;;
18647;SDS011;9453;50.294;18.644;2024-01-16T09:49:12;7.20;;;2.90;;
18647;SDS011;9453;50.294;18.644;2024-01-16T09:51:43;6.60;;;2.50;;
18647;SDS011;9453;50.294;18.644;2024-01-16T09:54:10;6.23;;;2.57;;
18647;SDS011;9453;50.294;18.644;2024-01-16T09:56:39;11.17;;;3.37;;
18647;SDS011;9453;50.294;18.644;2024-01-16T09:59:08;12.67;;;2.73;;
18647;SDS011;9453;50.294;18.644;2024-01-16T10:01:35;8.00;;;3.03;;
18647;SDS011;9453;50.294;18.644;2024-01-16T10:04:04;8.60;;;3.10;;
18647;SDS011;9453;50.294;18.644;2024-01-16T10:06:31;10.83;;;3.17;;
18647;SDS011;9453;50.294;18.644;2024-01-16T10:09:01;11.77;;;3.33;;
18647;SDS011;9453;50.294;18.644;2024-01-16T10:11:28;6.87;;;2.80;;
18647;SDS011;9453;50.294;18.644;2024-01-16T10:13:56;10.90;;;2.97;;
18647;SDS011;9453;50.294;18.644;2024-01-16T10:16:24;5.40;;;2.40;;
18647;SDS011;9453;50.294;18.644;2024-01-16T10:19:24;16.00;;;2.60;;
18647;SDS011;9453;50.294;18.644;2024-01-16T10:21:52;7.90;;;2.97;;
18647;SDS011;9453;50.294;18.644;2024-01-16T10:24:28;9.40;;;3.10;;
18647;SDS011;9453;50.294;18.644;2024-01-16T10:26:57;11.37;;;3.00;;
18647;SDS011;9453;50.294;18.644;2024-01-16T10:29:26;8.17;;;3.20;;
18647;SDS011;9453;50.294;18.644;2024-01-16T10:31:53;8.40;;;2.87;;
18647;SDS011;9453;50.294;18.644;2024-01-16T10:34:20;9.37;;;2.60;;
18647;SDS011;9453;50.294;18.644;2024-01-16T10:36:48;9.57;;;3.67;;
18647;SDS011;9453;50.294;18.644;2024-01-16T10:39:15;8.30;;;2.97;;
18647;SDS011;9453;50.294;18.644;2024-01-16T10:41:48;4.87;;;2.33;;
18647;SDS011;9453;50.294;18.644;2024-01-16T10:44:20;5.90;;;2.20;;
18647;SDS011;9453;50.294;18.644;2024-01-16T10:46:47;5.63;;;2.40;;
18647;SDS011;9453;50.294;18.644;2024-01-16T10:49:14;6.67;;;2.70;;
18647;SDS011;9453;50.294;18.644;2024-01-16T10:51:42;4.83;;;1.90;;
18647;SDS011;9453;50.294;18.644;2024-01-16T10:54:10;6.10;;;1.90;;
18647;SDS011;9453;50.294;18.644;2024-01-16T10:56:40;6.33;;;1.80;;
18647;SDS011;9453;50.294;18.644;2024-01-16T10:59:12;6.73;;;1.70;;
18647;SDS011;9453;50.294;18.644;2024-01-16T11:01:45;5.80;;;2.07;;
18647;SDS011;9453;50.294;18.644;2024-01-16T11:04:16;2.90;;;1.57;;
18647;SDS011;9453;50.294;18.644;2024-01-16T11:06:44;2.40;;;1.30;;
18647;SDS011;9453;50.294;18.644;2024-01-16T11:09:13;3.07;;;1.50;;
18647;SDS011;9453;50.294;18.644;2024-01-16T11:11:41;5.67;;;1.93;;
18647;SDS011;9453;50.294;18.644;2024-01-16T11:14:12;6.97;;;2.40;;
18647;SDS011;9453;50.294;18.644;2024-01-16T11:16:39;3.37;;;1.97;;
18647;SDS011;9453;50.294;18.644;2024-01-16T11:19:08;2.77;;;1.60;;
18647;SDS011;9453;50.294;18.644;2024-01-16T11:21:36;3.90;;;1.83;;
18647;SDS011;9453;50.294;18.644;2024-01-16T11:24:05;6.23;;;1.60;;
18647;SDS011;9453;50.294;18.644;2024-01-16T11:26:33;2.97;;;1.80;;
18647;SDS011;9453;50.294;18.644;2024-01-16T11:32:03;7.33;;;1.60;;
18647;SDS011;9453;50.294;18.644;2024-01-16T11:37:25;5.27;;;2.33;;
18647;SDS011;9453;50.294;18.644;2024-01-16T11:42:49;6.43;;;1.70;;
18647;SDS011;9453;50.294;18.644;2024-01-16T11:48:17;3.23;;;1.30;;
18647;SDS011;9453;50.294;18.644;2024-01-16T11:50:45;5.07;;;1.60;;
18647;SDS011;9453;50.294;18.644;2024-01-16T11:53:31;5.40;;;2.13;;
18647;SDS011;9453;50.294;18.644;2024-01-16T12:02:10;7.50;;;2.50;;
18647;SDS011;9453;50.294;18.644;2024-01-16T12:04:46;10.73;;;3.63;;
18647;SDS011;9453;50.294;18.644;2024-01-16T12:07:19;11.20;;;3.53;;
18647;SDS011;9453;50.294;18.644;2024-01-16T12:09:46;6.50;;;2.10;;
18647;SDS011;9453;50.294;18.644;2024-01-16T12:12:14;4.77;;;1.70;;
18647;SDS011;9453;50.294;18.644;2024-01-16T12:14:50;2.77;;;1.37;;
18647;SDS011;9453;50.294;18.644;2024-01-16T12:17:20;4.80;;;1.70;;
18647;SDS011;9453;50.294;18.644;2024-01-16T12:19:46;10.23;;;3.80;;
18647;SDS011;9453;50.294;18.644;2024-01-16T12:22:15;3.83;;;2.33;;
18647;SDS011;9453;50.294;18.644;2024-01-16T12:24:43;4.10;;;1.50;;
18647;SDS011;9453;50.294;18.644;2024-01-16T12:27:10;3.20;;;2.10;;
18647;SDS011;9453;50.294;18.644;2024-01-16T12:29:37;3.47;;;1.80;;
18647;SDS011;9453;50.294;18.644;2024-01-16T12:32:07;4.50;;;1.87;;
18647;SDS011;9453;50.294;18.644;2024-01-16T12:34:41;5.97;;;1.90;;
18647;SDS011;9453;50.294;18.644;2024-01-16T12:37:10;3.63;;;1.80;;
18647;SDS011;9453;50.294;18.644;2024-01-16T12:39:37;5.47;;;2.33;;
18647;SDS011;9453;50.294;18.644;2024-01-16T12:42:06;3.83;;;1.83;;
18647;SDS011;9453;50.294;18.644;2024-01-16T12:44:34;5.63;;;2.07;;
18647;SDS011;9453;50.294;18.644;2024-01-16T12:47:02;10.13;;;3.60;;
18647;SDS011;9453;50.294;18.644;2024-01-16T12:49:29;2.93;;;1.67;;
18647;SDS011;9453;50.294;18.644;2024-01-16T12:52:16;3.67;;;1.93;;
18647;SDS011;9453;50.294;18.644;2024-01-16T12:54:45;5.03;;;2.10;;
18647;SDS011;9453;50.294;18.644;2024-01-16T12:57:16;2.80;;;1.70;;
18647;SDS011;9453;50.294;18.644;2024-01-16T12:59:44;3.27;;;2.00;;
18647;SDS011;9453;50.294;18.644;2024-01-16T13:02:19;3.73;;;1.60;;
18647;SDS011;9453;50.294;18.644;2024-01-16T13:04:46;2.33;;;1.53;;
18647;SDS011;9453;50.294;18.644;2024-01-16T13:07:17;4.53;;;2.07;;
18647;SDS011;9453;50.294;18.644;2024-01-16T13:09:44;3.27;;;1.50;;
18647;SDS011;9453;50.294;18.644;2024-01-16T13:12:11;3.77;;;1.63;;
18647;SDS011;9453;50.294;18.644;2024-01-16T13:14:45;5.10;;;1.87;;
18647;SDS011;9453;50.294;18.644;2024-01-16T13:17:12;4.70;;;1.70;;
18647;SDS011;9453;50.294;18.644;2024-01-16T13:19:39;8.73;;;1.90;;
18647;SDS011;9453;50.294;18.644;2024-01-16T13:22:07;7.30;;;2.20;;
18647;SDS011;9453;50.294;18.644;2024-01-16T13:24:35;3.43;;;1.77;;
18647;SDS011;9453;50.294;18.644;2024-01-16T13:27:02;3.20;;;1.77;;
18647;SDS011;9453;50.294;18.644;2024-01-16T13:29:32;4.67;;;2.03;;
18647;SDS011;9453;50.294;18.644;2024-01-16T13:32:00;4.77;;;2.00;;
18647;SDS011;9453;50.294;18.644;2024-01-16T13:34:27;4.70;;;1.87;;
18647;SDS011;9453;50.294;18.644;2024-01-16T13:36:54;3.70;;;2.07;;
18647;SDS011;9453;50.294;18.644;2024-01-16T13:39:25;6.43;;;2.70;;
18647;SDS011;9453;50.294;18.644;2024-01-16T13:41:53;7.13;;;2.77;;
18647;SDS011;9453;50.294;18.644;2024-01-16T13:44:20;5.83;;;2.70;;
18647;SDS011;9453;50.294;18.644;2024-01-16T13:46:47;7.80;;;3.27;;
18647;SDS011;9453;50.294;18.644;2024-01-16T13:49:14;10.00;;;3.77;;
18647;SDS011;9453;50.294;18.644;2024-01-16T13:51:43;11.57;;;4.50;;
18647;SDS011;9453;50.294;18.644;2024-01-16T13:54:10;13.47;;;4.23;;
18647;SDS011;9453;50.294;18.644;2024-01-16T13:56:37;9.33;;;3.97;;
18647;SDS011;9453;50.294;18.644;2024-01-16T13:59:06;10.13;;;4.03;;
18647;SDS011;9453;50.294;18.644;2024-01-16T14:01:32;10.60;;;4.17;;
18647;SDS011;9453;50.294;18.644;2024-01-16T14:03:59;11.60;;;4.70;;
18647;SDS011;9453;50.294;18.644;2024-01-16T14:06:26;12.33;;;5.20;;
18647;SDS011;9453;50.294;18.644;2024-01-16T14:08:58;12.50;;;4.50;;
18647;SDS011;9453;50.294;18.644;2024-01-16T14:11:38;15.63;;;5.13;;
18647;SDS011;9453;50.294;18.644;2024-01-16T14:14:07;10.07;;;4.13;;
18647;SDS011;9453;50.294;18.644;2024-01-16T14:16:36;8.37;;;4.10;;
18647;SDS011;9453;50.294;18.644;2024-01-16T14:19:03;13.77;;;4.30;;
18647;SDS011;9453;50.294;18.644;2024-01-16T14:21:30;8.80;;;4.00;;
18647;SDS011;9453;50.294;18.644;2024-01-16T14:23:57;10.37;;;3.77;;
18647;SDS011;9453;50.294;18.644;2024-01-16T14:26:23;5.87;;;2.53;;
18647;SDS011;9453;50.294;18.644;2024-01-16T14:28:50;6.30;;;2.53;;
18647;SDS011;9453;50.294;18.644;2024-01-16T14:31:19;4.97;;;2.17;;
18647;SDS011;9453;50.294;18.644;2024-01-16T14:33:46;8.00;;;3.33;;
18647;SDS011;9453;50.294;18.644;2024-01-16T14:36:13;5.50;;;2.73;;
18647;SDS011;9453;50.294;18.644;2024-01-16T14:38:40;8.10;;;3.17;;
18647;SDS011;9453;50.294;18.644;2024-01-16T14:41:08;7.40;;;3.00;;
18647;SDS011;9453;50.294;18.644;2024-01-16T14:43:37;6.93;;;2.80;;
18647;SDS011;9453;50.294;18.644;2024-01-16T14:46:04;6.83;;;2.97;;
18647;SDS011;9453;50.294;18.644;2024-01-16T14:48:37;6.20;;;2.80;;
18647;SDS011;9453;50.294;18.644;2024-01-16T14:51:04;6.40;;;2.87;;
18647;SDS011;9453;50.294;18.644;2024-01-16T14:53:31;7.43;;;3.03;;
18647;SDS011;9453;50.294;18.644;2024-01-16T14:55:58;8.43;;;2.97;;
18647;SDS011;9453;50.294;18.644;2024-01-16T14:58:25;7.03;;;2.40;;
18647;SDS011;9453;50.294;18.644;2024-01-16T15:00:52;5.20;;;2.63;;
18647;SDS011;9453;50.294;18.644;2024-01-16T15:03:20;5.80;;;2.70;;
18647;SDS011;9453;50.294;18.644;2024-01-16T15:05:49;6.57;;;2.93;;
18647;SDS011;9453;50.294;18.644;2024-01-16T15:08:17;7.53;;;3.13;;
18647;SDS011;9453;50.294;18.644;2024-01-16T15:10:44;6.97;;;3.30;;
18647;SDS011;9453;50.294;18.644;2024-01-16T15:13:11;9.17;;;3.13;;
18647;SDS011;9453;50.294;18.644;2024-01-16T15:15:38;9.90;;;3.93;;
18647;SDS011;9453;50.294;18.644;2024-01-16T15:18:05;11.10;;;4.03;;
18647;SDS011;9453;50.294;18.644;2024-01-16T15:20:32;13.90;;;4.77;;
18647;SDS011;9453;50.294;18.644;2024-01-16T15:23:00;10.17;;;4.17;;
18647;SDS011;9453;50.294;18.644;2024-01-16T15:25:28;16.90;;;4.53;;
18647;SDS011;9453;50.294;18.644;2024-01-16T15:27:55;9.73;;;4.33;;
18647;SDS011;9453;50.294;18.644;2024-01-16T15:30:22;11.67;;;4.83;;
18647;SDS011;9453;50.294;18.644;2024-01-16T15:32:53;6.50;;;3.23;;
18647;SDS011;9453;50.294;18.644;2024-01-16T15:35:20;9.80;;;4.20;;
18647;SDS011;9453;50.294;18.644;2024-01-16T15:37:47;6.83;;;3.37;;
18647;SDS011;9453;50.294;18.644;2024-01-16T15:40:16;8.17;;;3.07;;
18647;SDS011;9453;50.294;18.644;2024-01-16T15:42:43;7.67;;;3.40;;
18647;SDS011;9453;50.294;18.644;2024-01-16T15:45:10;6.30;;;2.77;;
18647;SDS011;9453;50.294;18.644;2024-01-16T15:47:37;9.07;;;3.23;;
18647;SDS011;9453;50.294;18.644;2024-01-16T15:50:04;7.40;;;3.23;;
18647;SDS011;9453;50.294;18.644;2024-01-16T15:52:32;8.23;;;3.10;;
18647;SDS011;9453;50.294;18.644;2024-01-16T15:54:59;5.60;;;2.80;;
18647;SDS011;9453;50.294;18.644;2024-01-16T15:57:27;7.37;;;2.73;;
18647;SDS011;9453;50.294;18.644;2024-01-16T15:59:54;8.33;;;2.47;;
18647;SDS011;9453;50.294;18.644;2024-01-16T16:02:21;6.73;;;2.60;;
18647;SDS011;9453;50.294;18.644;2024-01-16T16:04:49;8.77;;;3.40;;
18647;SDS011;9453;50.294;18.644;2024-01-16T16:07:16;6.40;;;2.80;;
18647;SDS011;9453;50.294;18.644;2024-01-16T16:09:43;6.20;;;2.80;;
18647;SDS011;9453;50.294;18.644;2024-01-16T16:12:10;8.30;;;3.20;;
18647;SDS011;9453;50.294;18.644;2024-01-16T16:14:38;5.77;;;2.77;;
18647;SDS011;9453;50.294;18.644;2024-01-16T16:17:05;12.43;;;4.13;;
18647;SDS011;9453;50.294;18.644;2024-01-16T16:19:33;12.67;;;5.10;;
18647;SDS011;9453;50.294;18.644;2024-01-16T16:22:00;17.37;;;6.60;;
18647;SDS011;9453;50.294;18.644;2024-01-16T16:24:28;21.93;;;7.63;;
18647;SDS011;9453;50.294;18.644;2024-01-16T16:26:55;22.47;;;8.50;;
18647;SDS011;9453;50.294;18.644;2024-01-16T16:29:24;18.93;;;8.23;;
18647;SDS011;9453;50.294;18.644;2024-01-16T16:31:52;23.40;;;9.23;;
18647;SDS011;9453;50.294;18.644;2024-01-16T16:34:20;29.33;;;9.57;;
18647;SDS011;9453;50.294;18.644;2024-01-16T16:36:46;31.33;;;10.57;;
18647;SDS011;9453;50.294;18.644;2024-01-16T16:39:13;32.53;;;11.43;;
18647;SDS011;9453;50.294;18.644;2024-01-16T16:41:41;32.93;;;11.27;;
18647;SDS011;9453;50.294;18.644;2024-01-16T16:44:08;28.70;;;9.80;;
18647;SDS011;9453;50.294;18.644;2024-01-16T16:46:35;26.73;;;10.43;;
18647;SDS011;9453;50.294;18.644;2024-01-16T16:49:04;27.87;;;9.27;;
18647;SDS011;9453;50.294;18.644;2024-01-16T16:51:31;20.00;;;8.90;;
18647;SDS011;9453;50.294;18.644;2024-01-16T16:54:02;20.57;;;8.53;;
18647;SDS011;9453;50.294;18.644;2024-01-16T16:56:29;16.73;;;6.57;;
18647;SDS011;9453;50.294;18.644;2024-01-16T16:58:57;11.17;;;4.70;;
18647;SDS011;9453;50.294;18.644;2024-01-16T17:01:24;10.37;;;4.40;;
18647;SDS011;9453;50.294;18.644;2024-01-16T17:03:51;17.43;;;7.47;;
18647;SDS011;9453;50.294;18.644;2024-01-16T17:06:19;24.27;;;8.07;;
18647;SDS011;9453;50.294;18.644;2024-01-16T17:08:47;32.30;;;11.30;;
18647;SDS011;9453;50.294;18.644;2024-01-16T17:11:14;29.90;;;11.13;;
18647;SDS011;9453;50.294;18.644;2024-01-16T17:13:41;41.97;;;15.43;;
18647;SDS011;9453;50.294;18.644;2024-01-16T17:16:11;33.07;;;14.03;;
18647;SDS011;9453;50.294;18.644;2024-01-16T17:18:38;35.17;;;13.97;;
18647;SDS011;9453;50.294;18.644;2024-01-16T17:21:07;31.17;;;12.40;;
18647;SDS011;9453;50.294;18.644;2024-01-16T17:23:35;32.87;;;11.83;;
18647;SDS011;9453;50.294;18.644;2024-01-16T17:26:02;29.17;;;10.97;;
18647;SDS011;9453;50.294;18.644;2024-01-16T17:28:31;25.70;;;10.00;;
18647;SDS011;9453;50.294;18.644;2024-01-16T17:30:58;20.07;;;8.27;;
18647;SDS011;9453;50.294;18.644;2024-01-16T17:33:26;19.90;;;7.73;;
18647;SDS011;9453;50.294;18.644;2024-01-16T17:35:53;19.00;;;7.60;;
18647;SDS011;9453;50.294;18.644;2024-01-16T17:38:25;19.27;;;8.27;;
18647;SDS011;9453;50.294;18.644;2024-01-16T17:40:53;23.53;;;8.40;;
18647;SDS011;9453;50.294;18.644;2024-01-16T17:43:22;21.70;;;8.33;;
18647;SDS011;9453;50.294;18.644;2024-01-16T17:45:50;23.67;;;8.40;;
18647;SDS011;9453;50.294;18.644;2024-01-16T17:48:17;27.50;;;9.63;;
18647;SDS011;9453;50.294;18.644;2024-01-16T17:50:44;22.20;;;8.77;;
18647;SDS011;9453;50.294;18.644;2024-01-16T17:53:11;26.27;;;8.63;;
18647;SDS011;9453;50.294;18.644;2024-01-16T17:55:39;24.53;;;9.50;;
18647;SDS011;9453;50.294;18.644;2024-01-16T17:58:08;22.63;;;8.40;;
18647;SDS011;9453;50.294;18.644;2024-01-16T18:00:36;22.73;;;8.30;;
18647;SDS011;9453;50.294;18.644;2024-01-16T18:03:03;17.57;;;8.03;;
18647;SDS011;9453;50.294;18.644;2024-01-16T18:05:31;16.20;;;7.60;;
18647;SDS011;9453;50.294;18.644;2024-01-16T18:07:58;17.87;;;7.13;;
18647;SDS011;9453;50.294;18.644;2024-01-16T18:10:26;19.00;;;7.30;;
18647;SDS011;9453;50.294;18.644;2024-01-16T18:12:55;18.93;;;7.53;;
18647;SDS011;9453;50.294;18.644;2024-01-16T18:15:23;17.27;;;7.27;;
18647;SDS011;9453;50.294;18.644;2024-01-16T18:17:52;20.97;;;7.30;;
18647;SDS011;9453;50.294;18.644;2024-01-16T18:20:19;23.13;;;8.80;;
18647;SDS011;9453;50.294;18.644;2024-01-16T18:22:47;50.03;;;16.30;;
18647;SDS011;9453;50.294;18.644;2024-01-16T18:25:15;50.03;;;17.23;;
18647;SDS011;9453;50.294;18.644;2024-01-16T18:27:43;38.13;;;15.43;;
18647;SDS011;9453;50.294;18.644;2024-01-16T18:30:10;44.80;;;15.60;;
18647;SDS011;9453;50.294;18.644;2024-01-16T18:32:41;37.77;;;14.47;;
18647;SDS011;9453;50.294;18.644;2024-01-16T18:35:08;38.77;;;14.57;;
18647;SDS011;9453;50.294;18.644;2024-01-16T18:37:37;36.37;;;14.73;;
18647;SDS011;9453;50.294;18.644;2024-01-16T18:40:05;33.27;;;13.63;;
18647;SDS011;9453;50.294;18.644;2024-01-16T18:42:34;36.77;;;13.67;;
18647;SDS011;9453;50.294;18.644;2024-01-16T18:45:01;40.30;;;16.00;;
18647;SDS011;9453;50.294;18.644;2024-01-16T18:47:29;44.03;;;17.03;;
18647;SDS011;9453;50.294;18.644;2024-01-16T18:49:58;42.17;;;14.87;;
18647;SDS011;9453;50.294;18.644;2024-01-16T18:52:25;38.93;;;14.70;;
18647;SDS011;9453;50.294;18.644;2024-01-16T18:54:52;39.93;;;14.57;;
18647;SDS011;9453;50.294;18.644;2024-01-16T18:57:19;39.53;;;13.90;;
18647;SDS011;9453;50.294;18.644;2024-01-16T18:59:46;38.13;;;13.97;;
18647;SDS011;9453;50.294;18.644;2024-01-16T19:02:13;49.77;;;15.30;;
18647;SDS011;9453;50.294;18.644;2024-01-16T19:04:42;42.63;;;13.93;;
18647;SDS011;9453;50.294;18.644;2024-01-16T19:07:12;42.67;;;13.47;;
18647;SDS011;9453;50.294;18.644;2024-01-16T19:09:42;39.47;;;13.67;;
18647;SDS011;9453;50.294;18.644;2024-01-16T19:12:10;35.83;;;14.03;;
18647;SDS011;9453;50.294;18.644;2024-01-16T19:14:38;42.50;;;14.67;;
18647;SDS011;9453;50.294;18.644;2024-01-16T19:17:05;49.47;;;16.67;;
18647;SDS011;9453;50.294;18.644;2024-01-16T19:19:33;54.13;;;17.37;;
18647;SDS011;9453;50.294;18.644;2024-01-16T19:22:01;52.77;;;19.77;;
18647;SDS011;9453;50.294;18.644;2024-01-16T19:24:29;57.07;;;17.77;;
18647;SDS011;9453;50.294;18.644;2024-01-16T19:26:56;48.27;;;18.07;;
18647;SDS011;9453;50.294;18.644;2024-01-16T19:29:24;56.20;;;18.77;;
18647;SDS011;9453;50.294;18.644;2024-01-16T19:31:51;49.60;;;17.90;;
18647;SDS011;9453;50.294;18.644;2024-01-16T19:34:18;52.50;;;19.27;;
18647;SDS011;9453;50.294;18.644;2024-01-16T19:36:47;63.30;;;19.20;;
18647;SDS011;9453;50.294;18.644;2024-01-16T19:39:15;57.43;;;20.17;;
18647;SDS011;9453;50.294;18.644;2024-01-16T19:41:47;73.57;;;21.43;;
18647;SDS011;9453;50.294;18.644;2024-01-16T19:44:14;68.47;;;20.87;;
18647;SDS011;9453;50.294;18.644;2024-01-16T19:46:41;57.87;;;18.90;;
18647;SDS011;9453;50.294;18.644;2024-01-16T19:49:09;64.40;;;22.23;;
18647;SDS011;9453;50.294;18.644;2024-01-16T19:51:37;63.67;;;21.10;;
18647;SDS011;9453;50.294;18.644;2024-01-16T19:54:05;65.17;;;20.37;;
18647;SDS011;9453;50.294;18.644;2024-01-16T19:56:33;63.87;;;21.47;;
18647;SDS011;9453;50.294;18.644;2024-01-16T19:59:01;72.97;;;22.57;;
18647;SDS011;9453;50.294;18.644;2024-01-16T20:01:29;73.27;;;19.17;;